sensor_id;sensor_type;location;lat;lon;timestamp;temperature;humidity
12700;DHT22;6414;49.570;6.060;2022-11-20T00:00:00;7.10;99.90
12700;DHT22;6414;49.570;6.060;2022-11-20T00:02:46;7.10;99.90
12700;DHT22;6414;49.570;6.060;2022-11-20T00:05:32;7.10;99.90
12700;DHT22;6414;49.570;6.060;2022-11-20T00:08:16;7.10;99.90
12700;DHT22;6414;49.570;6.060;2022-11-20T00:11:08;7.10;99.90
12700;DHT22;6414;49.570;6.060;2022-11-20T00:13:55;7.10;99.90
12700;DHT22;6414;49.570;6.060;2022-11-20T00:16:38;7.10;99.90
12700;DHT22;6414;49.570;6.060;2022-11-20T00:19:24;7.10;99.90
12700;DHT22;6414;49.570;6.060;2022-11-20T00:22:09;7.10;99.90
12700;DHT22;6414;49.570;6.060;2022-11-20T00:24:55;7.10;99.90
12700;DHT22;6414;49.570;6.060;2022-11-20T00:27:40;7.10;99.90
12700;DHT22;6414;49.570;6.060;2022-11-20T00:30:26;7.10;99.90
12700;DHT22;6414;49.570;6.060;2022-11-20T00:33:11;7.10;99.90
12700;DHT22;6414;49.570;6.060;2022-11-20T00:36:00;7.10;99.90
12700;DHT22;6414;49.570;6.060;2022-11-20T00:38:45;7.10;99.90
12700;DHT22;6414;49.570;6.060;2022-11-20T00:41:30;7.10;99.90
12700;DHT22;6414;49.570;6.060;2022-11-20T00:44:16;7.00;99.90
12700;DHT22;6414;49.570;6.060;2022-11-20T00:47:01;7.10;99.90
12700;DHT22;6414;49.570;6.060;2022-11-20T00:49:47;7.00;99.90
12700;DHT22;6414;49.570;6.060;2022-11-20T00:52:32;7.00;99.90
12700;DHT22;6414;49.570;6.060;2022-11-20T00:55:17;7.00;99.90
12700;DHT22;6414;49.570;6.060;2022-11-20T00:58:03;7.10;99.90
12700;DHT22;6414;49.570;6.060;2022-11-20T01:00:48;7.10;99.90
12700;DHT22;6414;49.570;6.060;2022-11-20T01:03:35;7.10;99.90
12700;DHT22;6414;49.570;6.060;2022-11-20T01:06:24;7.20;99.90
12700;DHT22;6414;49.570;6.060;2022-11-20T01:09:13;7.10;99.90
12700;DHT22;6414;49.570;6.060;2022-11-20T01:12:00;7.20;99.90
12700;DHT22;6414;49.570;6.060;2022-11-20T01:14:46;7.20;99.90
12700;DHT22;6414;49.570;6.060;2022-11-20T01:17:31;7.10;99.90
12700;DHT22;6414;49.570;6.060;2022-11-20T01:20:16;7.10;99.90
12700;DHT22;6414;49.570;6.060;2022-11-20T01:23:04;7.10;99.90
12700;DHT22;6414;49.570;6.060;2022-11-20T01:25:53;7.20;99.90
12700;DHT22;6414;49.570;6.060;2022-11-20T01:28:39;7.20;99.90
12700;DHT22;6414;49.570;6.060;2022-11-20T01:34:10;7.10;99.90
12700;DHT22;6414;49.570;6.060;2022-11-20T01:36:54;7.10;99.90
12700;DHT22;6414;49.570;6.060;2022-11-20T01:39:40;7.10;99.90
12700;DHT22;6414;49.570;6.060;2022-11-20T01:42:25;7.10;99.90
12700;DHT22;6414;49.570;6.060;2022-11-20T01:48:47;7.10;99.90
12700;DHT22;6414;49.570;6.060;2022-11-20T01:51:46;7.10;99.90
12700;DHT22;6414;49.570;6.060;2022-11-20T01:54:35;7.10;99.90
12700;DHT22;6414;49.570;6.060;2022-11-20T01:57:19;7.10;99.90
12700;DHT22;6414;49.570;6.060;2022-11-20T02:00:07;7.10;99.90
12700;DHT22;6414;49.570;6.060;2022-11-20T02:03:01;7.10;99.90
12700;DHT22;6414;49.570;6.060;2022-11-20T02:08:37;7.20;99.90
12700;DHT22;6414;49.570;6.060;2022-11-20T02:11:22;7.20;99.90
12700;DHT22;6414;49.570;6.060;2022-11-20T02:14:08;7.20;99.90
12700;DHT22;6414;49.570;6.060;2022-11-20T02:16:53;7.10;99.90
12700;DHT22;6414;49.570;6.060;2022-11-20T02:19:39;7.10;99.90
12700;DHT22;6414;49.570;6.060;2022-11-20T02:22:31;7.20;99.90
12700;DHT22;6414;49.570;6.060;2022-11-20T02:25:12;7.10;99.90
12700;DHT22;6414;49.570;6.060;2022-11-20T02:27:58;7.10;99.90
12700;DHT22;6414;49.570;6.060;2022-11-20T02:30:44;7.10;99.90
12700;DHT22;6414;49.570;6.060;2022-11-20T02:33:29;7.10;99.90
12700;DHT22;6414;49.570;6.060;2022-11-20T02:36:14;7.10;99.90
12700;DHT22;6414;49.570;6.060;2022-11-20T02:38:59;7.00;99.90
12700;DHT22;6414;49.570;6.060;2022-11-20T02:41:45;7.10;99.90
12700;DHT22;6414;49.570;6.060;2022-11-20T02:44:30;7.00;99.90
12700;DHT22;6414;49.570;6.060;2022-11-20T02:47:16;6.90;99.90
12700;DHT22;6414;49.570;6.060;2022-11-20T02:50:02;6.90;99.90
12700;DHT22;6414;49.570;6.060;2022-11-20T02:52:47;6.90;99.90
12700;DHT22;6414;49.570;6.060;2022-11-20T02:55:32;6.80;99.90
12700;DHT22;6414;49.570;6.060;2022-11-20T02:58:17;6.80;99.90
12700;DHT22;6414;49.570;6.060;2022-11-20T03:01:03;6.90;99.90
12700;DHT22;6414;49.570;6.060;2022-11-20T03:03:48;6.90;99.90
12700;DHT22;6414;49.570;6.060;2022-11-20T03:06:34;7.00;99.90
12700;DHT22;6414;49.570;6.060;2022-11-20T03:09:19;6.90;99.90
12700;DHT22;6414;49.570;6.060;2022-11-20T03:12:05;7.00;99.90
12700;DHT22;6414;49.570;6.060;2022-11-20T03:14:50;6.90;99.90
12700;DHT22;6414;49.570;6.060;2022-11-20T03:17:36;6.90;99.90
12700;DHT22;6414;49.570;6.060;2022-11-20T03:20:21;6.90;99.90
12700;DHT22;6414;49.570;6.060;2022-11-20T03:23:07;6.90;99.90
12700;DHT22;6414;49.570;6.060;2022-11-20T03:25:52;6.80;99.90
12700;DHT22;6414;49.570;6.060;2022-11-20T03:28:37;6.90;99.90
12700;DHT22;6414;49.570;6.060;2022-11-20T03:31:26;6.80;99.90
12700;DHT22;6414;49.570;6.060;2022-11-20T03:34:08;6.80;99.90
12700;DHT22;6414;49.570;6.060;2022-11-20T03:36:54;6.80;99.90
12700;DHT22;6414;49.570;6.060;2022-11-20T03:39:40;6.80;99.90
12700;DHT22;6414;49.570;6.060;2022-11-20T03:42:26;6.80;99.90
12700;DHT22;6414;49.570;6.060;2022-11-20T03:45:29;6.80;99.90
12700;DHT22;6414;49.570;6.060;2022-11-20T03:48:15;6.80;99.90
12700;DHT22;6414;49.570;6.060;2022-11-20T03:51:10;6.80;99.90
12700;DHT22;6414;49.570;6.060;2022-11-20T03:53:53;6.80;99.90
12700;DHT22;6414;49.570;6.060;2022-11-20T03:56:38;6.70;99.90
12700;DHT22;6414;49.570;6.060;2022-11-20T03:59:23;6.80;99.90
12700;DHT22;6414;49.570;6.060;2022-11-20T04:02:08;6.80;99.90
12700;DHT22;6414;49.570;6.060;2022-11-20T04:04:54;6.80;99.90
12700;DHT22;6414;49.570;6.060;2022-11-20T04:07:39;6.80;99.90
12700;DHT22;6414;49.570;6.060;2022-11-20T04:10:24;6.80;99.90
12700;DHT22;6414;49.570;6.060;2022-11-20T04:13:10;6.80;99.90
12700;DHT22;6414;49.570;6.060;2022-11-20T04:15:57;6.80;99.90
12700;DHT22;6414;49.570;6.060;2022-11-20T04:18:40;6.80;99.90
12700;DHT22;6414;49.570;6.060;2022-11-20T04:21:26;6.80;99.90
12700;DHT22;6414;49.570;6.060;2022-11-20T04:24:12;6.80;99.90
12700;DHT22;6414;49.570;6.060;2022-11-20T04:26:58;6.80;99.90
12700;DHT22;6414;49.570;6.060;2022-11-20T04:29:43;6.80;99.90
12700;DHT22;6414;49.570;6.060;2022-11-20T04:32:28;6.80;99.90
12700;DHT22;6414;49.570;6.060;2022-11-20T04:35:14;6.80;99.90
12700;DHT22;6414;49.570;6.060;2022-11-20T04:38:00;6.80;99.90
12700;DHT22;6414;49.570;6.060;2022-11-20T04:40:46;6.80;99.90
12700;DHT22;6414;49.570;6.060;2022-11-20T04:43:32;6.80;99.90
12700;DHT22;6414;49.570;6.060;2022-11-20T04:46:17;6.80;99.90
12700;DHT22;6414;49.570;6.060;2022-11-20T04:49:02;6.70;99.90
12700;DHT22;6414;49.570;6.060;2022-11-20T04:51:48;6.60;99.90
12700;DHT22;6414;49.570;6.060;2022-11-20T04:54:34;6.60;99.90
12700;DHT22;6414;49.570;6.060;2022-11-20T04:57:20;6.50;99.90
12700;DHT22;6414;49.570;6.060;2022-11-20T05:00:05;6.50;99.90
12700;DHT22;6414;49.570;6.060;2022-11-20T05:02:50;6.50;99.90
12700;DHT22;6414;49.570;6.060;2022-11-20T05:05:36;6.50;99.90
12700;DHT22;6414;49.570;6.060;2022-11-20T05:08:21;6.60;99.90
12700;DHT22;6414;49.570;6.060;2022-11-20T05:11:11;6.60;99.90
12700;DHT22;6414;49.570;6.060;2022-11-20T05:13:55;6.60;99.90
12700;DHT22;6414;49.570;6.060;2022-11-20T05:16:41;6.60;99.90
12700;DHT22;6414;49.570;6.060;2022-11-20T05:19:26;6.60;99.90
12700;DHT22;6414;49.570;6.060;2022-11-20T05:22:12;6.70;99.90
12700;DHT22;6414;49.570;6.060;2022-11-20T05:24:58;6.70;99.90
12700;DHT22;6414;49.570;6.060;2022-11-20T05:27:43;6.70;99.90
12700;DHT22;6414;49.570;6.060;2022-11-20T05:30:28;6.70;99.90
12700;DHT22;6414;49.570;6.060;2022-11-20T05:33:14;6.70;99.90
12700;DHT22;6414;49.570;6.060;2022-11-20T05:36:03;6.70;99.90
12700;DHT22;6414;49.570;6.060;2022-11-20T05:38:48;6.70;99.90
12700;DHT22;6414;49.570;6.060;2022-11-20T05:41:33;6.60;99.90
12700;DHT22;6414;49.570;6.060;2022-11-20T05:44:19;6.70;99.90
12700;DHT22;6414;49.570;6.060;2022-11-20T05:47:05;6.70;99.90
12700;DHT22;6414;49.570;6.060;2022-11-20T05:49:50;6.70;99.90
12700;DHT22;6414;49.570;6.060;2022-11-20T05:52:36;6.70;99.90
12700;DHT22;6414;49.570;6.060;2022-11-20T05:55:21;6.70;99.90
12700;DHT22;6414;49.570;6.060;2022-11-20T05:58:07;6.70;99.90
12700;DHT22;6414;49.570;6.060;2022-11-20T06:00:52;6.70;99.90
12700;DHT22;6414;49.570;6.060;2022-11-20T06:03:38;6.70;99.90
12700;DHT22;6414;49.570;6.060;2022-11-20T06:06:23;6.70;99.90
12700;DHT22;6414;49.570;6.060;2022-11-20T06:09:08;6.60;99.90
12700;DHT22;6414;49.570;6.060;2022-11-20T06:11:54;6.60;99.90
12700;DHT22;6414;49.570;6.060;2022-11-20T06:14:40;6.60;99.90
12700;DHT22;6414;49.570;6.060;2022-11-20T06:17:25;6.70;99.90
12700;DHT22;6414;49.570;6.060;2022-11-20T06:20:11;6.70;99.90
12700;DHT22;6414;49.570;6.060;2022-11-20T06:22:56;6.70;99.90
12700;DHT22;6414;49.570;6.060;2022-11-20T06:25:42;6.60;99.90
12700;DHT22;6414;49.570;6.060;2022-11-20T06:28:27;6.60;99.90
12700;DHT22;6414;49.570;6.060;2022-11-20T06:31:13;6.60;99.90
12700;DHT22;6414;49.570;6.060;2022-11-20T06:33:58;6.60;99.90
12700;DHT22;6414;49.570;6.060;2022-11-20T06:36:47;6.60;99.90
12700;DHT22;6414;49.570;6.060;2022-11-20T06:39:32;6.60;99.90
12700;DHT22;6414;49.570;6.060;2022-11-20T06:42:18;6.60;99.90
12700;DHT22;6414;49.570;6.060;2022-11-20T06:45:03;6.60;99.90
12700;DHT22;6414;49.570;6.060;2022-11-20T06:47:50;6.70;99.90
12700;DHT22;6414;49.570;6.060;2022-11-20T06:50:38;6.70;99.90
12700;DHT22;6414;49.570;6.060;2022-11-20T06:53:25;6.70;99.90
12700;DHT22;6414;49.570;6.060;2022-11-20T06:56:10;6.70;99.90
12700;DHT22;6414;49.570;6.060;2022-11-20T06:58:56;6.70;99.90
12700;DHT22;6414;49.570;6.060;2022-11-20T07:01:42;6.80;99.90
12700;DHT22;6414;49.570;6.060;2022-11-20T07:04:27;6.70;99.90
12700;DHT22;6414;49.570;6.060;2022-11-20T07:07:13;6.70;99.90
12700;DHT22;6414;49.570;6.060;2022-11-20T07:09:58;6.70;99.90
12700;DHT22;6414;49.570;6.060;2022-11-20T07:12:48;6.80;99.90
12700;DHT22;6414;49.570;6.060;2022-11-20T07:15:28;6.80;99.90
12700;DHT22;6414;49.570;6.060;2022-11-20T07:18:14;6.80;99.90
12700;DHT22;6414;49.570;6.060;2022-11-20T07:21:00;6.80;99.90
12700;DHT22;6414;49.570;6.060;2022-11-20T07:23:46;6.80;99.90
12700;DHT22;6414;49.570;6.060;2022-11-20T07:26:31;6.80;99.90
12700;DHT22;6414;49.570;6.060;2022-11-20T07:29:17;6.70;99.90
12700;DHT22;6414;49.570;6.060;2022-11-20T07:32:02;6.70;99.90
12700;DHT22;6414;49.570;6.060;2022-11-20T07:34:48;6.70;99.90
12700;DHT22;6414;49.570;6.060;2022-11-20T07:37:36;6.80;99.90
12700;DHT22;6414;49.570;6.060;2022-11-20T07:40:21;6.80;99.90
12700;DHT22;6414;49.570;6.060;2022-11-20T07:43:07;6.80;99.90
12700;DHT22;6414;49.570;6.060;2022-11-20T07:45:56;6.80;99.90
12700;DHT22;6414;49.570;6.060;2022-11-20T07:48:38;6.80;99.90
12700;DHT22;6414;49.570;6.060;2022-11-20T07:51:23;6.80;99.90
12700;DHT22;6414;49.570;6.060;2022-11-20T07:54:08;6.80;99.90
12700;DHT22;6414;49.570;6.060;2022-11-20T07:56:54;6.90;99.90
12700;DHT22;6414;49.570;6.060;2022-11-20T07:59:40;6.90;99.90
12700;DHT22;6414;49.570;6.060;2022-11-20T08:02:25;6.90;99.90
12700;DHT22;6414;49.570;6.060;2022-11-20T08:05:11;6.90;99.90
12700;DHT22;6414;49.570;6.060;2022-11-20T08:07:56;6.90;99.90
12700;DHT22;6414;49.570;6.060;2022-11-20T08:10:42;6.90;99.90
12700;DHT22;6414;49.570;6.060;2022-11-20T08:13:27;6.80;99.90
12700;DHT22;6414;49.570;6.060;2022-11-20T08:16:31;6.80;99.90
12700;DHT22;6414;49.570;6.060;2022-11-20T08:19:17;6.80;99.90
12700;DHT22;6414;49.570;6.060;2022-11-20T08:22:02;6.90;99.90
12700;DHT22;6414;49.570;6.060;2022-11-20T08:24:47;6.90;99.90
12700;DHT22;6414;49.570;6.060;2022-11-20T08:27:32;6.90;99.90
12700;DHT22;6414;49.570;6.060;2022-11-20T08:30:18;6.90;99.90
12700;DHT22;6414;49.570;6.060;2022-11-20T08:33:07;6.90;99.90
12700;DHT22;6414;49.570;6.060;2022-11-20T08:35:52;6.80;99.90
12700;DHT22;6414;49.570;6.060;2022-11-20T08:38:38;6.80;99.90
12700;DHT22;6414;49.570;6.060;2022-11-20T08:41:24;6.80;99.90
12700;DHT22;6414;49.570;6.060;2022-11-20T08:44:10;6.80;99.90
12700;DHT22;6414;49.570;6.060;2022-11-20T08:46:55;6.80;99.90
12700;DHT22;6414;49.570;6.060;2022-11-20T08:49:42;6.90;99.90
12700;DHT22;6414;49.570;6.060;2022-11-20T08:52:28;6.90;99.90
12700;DHT22;6414;49.570;6.060;2022-11-20T08:55:13;6.90;99.90
12700;DHT22;6414;49.570;6.060;2022-11-20T08:58:03;8.10;99.90
12700;DHT22;6414;49.570;6.060;2022-11-20T09:00:44;8.10;99.90
12700;DHT22;6414;49.570;6.060;2022-11-20T09:03:30;7.60;99.90
12700;DHT22;6414;49.570;6.060;2022-11-20T09:06:15;9.40;99.90
12700;DHT22;6414;49.570;6.060;2022-11-20T09:09:00;10.40;99.90
12700;DHT22;6414;49.570;6.060;2022-11-20T09:11:46;11.10;99.90
12700;DHT22;6414;49.570;6.060;2022-11-20T09:14:31;10.70;99.90
12700;DHT22;6414;49.570;6.060;2022-11-20T09:17:17;11.00;99.90
12700;DHT22;6414;49.570;6.060;2022-11-20T09:20:02;9.80;99.90
12700;DHT22;6414;49.570;6.060;2022-11-20T09:22:47;8.20;99.90
12700;DHT22;6414;49.570;6.060;2022-11-20T09:25:33;8.60;99.90
12700;DHT22;6414;49.570;6.060;2022-11-20T09:28:18;10.40;99.90
12700;DHT22;6414;49.570;6.060;2022-11-20T09:31:24;9.60;99.90
12700;DHT22;6414;49.570;6.060;2022-11-20T09:34:08;9.60;99.90
12700;DHT22;6414;49.570;6.060;2022-11-20T09:36:53;8.30;99.90
12700;DHT22;6414;49.570;6.060;2022-11-20T09:39:39;7.80;99.90
12700;DHT22;6414;49.570;6.060;2022-11-20T09:51:56;7.60;99.90
12700;DHT22;6414;49.570;6.060;2022-11-20T09:54:39;7.60;99.90
12700;DHT22;6414;49.570;6.060;2022-11-20T09:57:30;7.50;99.90
12700;DHT22;6414;49.570;6.060;2022-11-20T10:00:12;7.50;99.90
12700;DHT22;6414;49.570;6.060;2022-11-20T10:05:46;7.50;99.90
12700;DHT22;6414;49.570;6.060;2022-11-20T10:08:34;7.40;99.90
12700;DHT22;6414;49.570;6.060;2022-11-20T10:14:53;7.60;99.90
12700;DHT22;6414;49.570;6.060;2022-11-20T10:17:58;7.60;99.90
12700;DHT22;6414;49.570;6.060;2022-11-20T10:21:05;7.70;99.90
12700;DHT22;6414;49.570;6.060;2022-11-20T10:24:05;7.50;99.90
12700;DHT22;6414;49.570;6.060;2022-11-20T10:29:45;7.40;99.90
12700;DHT22;6414;49.570;6.060;2022-11-20T10:32:39;7.60;99.90
12700;DHT22;6414;49.570;6.060;2022-11-20T10:35:25;7.60;99.90
12700;DHT22;6414;49.570;6.060;2022-11-20T10:38:20;7.70;99.90
12700;DHT22;6414;49.570;6.060;2022-11-20T10:40:54;7.70;99.90
12700;DHT22;6414;49.570;6.060;2022-11-20T10:43:39;7.90;99.90
12700;DHT22;6414;49.570;6.060;2022-11-20T10:46:24;8.00;99.90
12700;DHT22;6414;49.570;6.060;2022-11-20T10:49:16;7.90;99.90
12700;DHT22;6414;49.570;6.060;2022-11-20T11:00:37;8.20;99.90
12700;DHT22;6414;49.570;6.060;2022-11-20T11:03:24;8.10;99.90
12700;DHT22;6414;49.570;6.060;2022-11-20T11:06:29;7.90;99.90
12700;DHT22;6414;49.570;6.060;2022-11-20T11:09:15;8.00;99.90
12700;DHT22;6414;49.570;6.060;2022-11-20T11:11:58;8.00;99.90
12700;DHT22;6414;49.570;6.060;2022-11-20T11:14:50;8.00;99.90
12700;DHT22;6414;49.570;6.060;2022-11-20T11:17:35;8.00;99.90
12700;DHT22;6414;49.570;6.060;2022-11-20T11:20:25;7.80;99.90
12700;DHT22;6414;49.570;6.060;2022-11-20T11:23:11;7.80;99.90
12700;DHT22;6414;49.570;6.060;2022-11-20T11:26:24;7.90;99.90
12700;DHT22;6414;49.570;6.060;2022-11-20T11:29:15;7.90;99.90
12700;DHT22;6414;49.570;6.060;2022-11-20T11:32:11;7.90;99.90
12700;DHT22;6414;49.570;6.060;2022-11-20T11:35:04;7.80;99.90
12700;DHT22;6414;49.570;6.060;2022-11-20T11:37:48;7.90;99.90
12700;DHT22;6414;49.570;6.060;2022-11-20T11:40:34;7.70;99.90
12700;DHT22;6414;49.570;6.060;2022-11-20T11:43:22;7.60;99.90
12700;DHT22;6414;49.570;6.060;2022-11-20T11:46:34;7.60;99.90
12700;DHT22;6414;49.570;6.060;2022-11-20T11:49:43;7.50;99.90
12700;DHT22;6414;49.570;6.060;2022-11-20T11:52:28;7.60;99.90
12700;DHT22;6414;49.570;6.060;2022-11-20T11:55:15;8.00;99.90
12700;DHT22;6414;49.570;6.060;2022-11-20T11:58:09;7.70;99.90
12700;DHT22;6414;49.570;6.060;2022-11-20T12:01:00;7.60;99.90
12700;DHT22;6414;49.570;6.060;2022-11-20T12:03:40;7.60;99.90
12700;DHT22;6414;49.570;6.060;2022-11-20T12:06:27;7.60;99.90
12700;DHT22;6414;49.570;6.060;2022-11-20T12:09:23;7.40;99.90
12700;DHT22;6414;49.570;6.060;2022-11-20T12:12:23;7.50;99.90
12700;DHT22;6414;49.570;6.060;2022-11-20T12:14:58;7.60;99.90
12700;DHT22;6414;49.570;6.060;2022-11-20T12:17:44;7.60;99.90
12700;DHT22;6414;49.570;6.060;2022-11-20T12:20:32;7.50;99.90
12700;DHT22;6414;49.570;6.060;2022-11-20T12:23:19;7.40;99.90
12700;DHT22;6414;49.570;6.060;2022-11-20T12:26:05;7.40;99.90
12700;DHT22;6414;49.570;6.060;2022-11-20T12:37:33;7.40;99.90
12700;DHT22;6414;49.570;6.060;2022-11-20T12:40:35;7.30;99.90
12700;DHT22;6414;49.570;6.060;2022-11-20T12:43:22;7.40;99.90
12700;DHT22;6414;49.570;6.060;2022-11-20T12:49:41;7.30;99.90
12700;DHT22;6414;49.570;6.060;2022-11-20T12:52:38;7.30;99.90
12700;DHT22;6414;49.570;6.060;2022-11-20T12:58:12;7.20;99.90
12700;DHT22;6414;49.570;6.060;2022-11-20T13:07:22;7.20;99.90
12700;DHT22;6414;49.570;6.060;2022-11-20T13:10:13;7.30;99.90
12700;DHT22;6414;49.570;6.060;2022-11-20T13:12:57;7.30;99.90
12700;DHT22;6414;49.570;6.060;2022-11-20T13:18:41;7.20;99.90
12700;DHT22;6414;49.570;6.060;2022-11-20T13:21:37;7.10;99.90
12700;DHT22;6414;49.570;6.060;2022-11-20T13:24:24;7.10;99.90
12700;DHT22;6414;49.570;6.060;2022-11-20T13:30:00;7.00;99.90
12700;DHT22;6414;49.570;6.060;2022-11-20T13:32:49;7.20;99.90
12700;DHT22;6414;49.570;6.060;2022-11-20T13:35:36;7.10;99.90
12700;DHT22;6414;49.570;6.060;2022-11-20T13:38:21;7.10;99.90
12700;DHT22;6414;49.570;6.060;2022-11-20T13:41:07;7.10;99.90
12700;DHT22;6414;49.570;6.060;2022-11-20T13:43:53;7.10;99.90
12700;DHT22;6414;49.570;6.060;2022-11-20T13:46:43;7.10;99.90
12700;DHT22;6414;49.570;6.060;2022-11-20T13:49:33;7.10;99.90
12700;DHT22;6414;49.570;6.060;2022-11-20T14:01:47;7.20;99.90
12700;DHT22;6414;49.570;6.060;2022-11-20T14:04:36;7.10;99.90
12700;DHT22;6414;49.570;6.060;2022-11-20T14:07:21;7.00;99.90
12700;DHT22;6414;49.570;6.060;2022-11-20T14:10:27;7.00;99.90
12700;DHT22;6414;49.570;6.060;2022-11-20T14:13:18;7.10;99.90
12700;DHT22;6414;49.570;6.060;2022-11-20T14:16:04;7.00;99.90
12700;DHT22;6414;49.570;6.060;2022-11-20T14:18:49;7.00;99.90
12700;DHT22;6414;49.570;6.060;2022-11-20T14:21:35;6.90;99.90
12700;DHT22;6414;49.570;6.060;2022-11-20T14:24:25;6.90;99.90
12700;DHT22;6414;49.570;6.060;2022-11-20T14:27:16;6.90;99.90
12700;DHT22;6414;49.570;6.060;2022-11-20T14:30:00;7.00;99.90
12700;DHT22;6414;49.570;6.060;2022-11-20T14:32:44;6.90;99.90
12700;DHT22;6414;49.570;6.060;2022-11-20T14:35:31;6.60;99.90
12700;DHT22;6414;49.570;6.060;2022-11-20T14:38:16;6.60;99.90
12700;DHT22;6414;49.570;6.060;2022-11-20T14:41:05;6.40;99.90
12700;DHT22;6414;49.570;6.060;2022-11-20T14:43:56;6.40;99.90
12700;DHT22;6414;49.570;6.060;2022-11-20T14:46:40;6.40;99.90
12700;DHT22;6414;49.570;6.060;2022-11-20T14:49:28;6.40;99.90
12700;DHT22;6414;49.570;6.060;2022-11-20T14:52:15;6.50;99.90
12700;DHT22;6414;49.570;6.060;2022-11-20T14:54:59;6.40;99.90
12700;DHT22;6414;49.570;6.060;2022-11-20T14:57:53;6.40;99.90
12700;DHT22;6414;49.570;6.060;2022-11-20T15:00:38;6.20;99.90
12700;DHT22;6414;49.570;6.060;2022-11-20T15:03:35;6.20;99.90
12700;DHT22;6414;49.570;6.060;2022-11-20T15:06:11;6.20;99.90
12700;DHT22;6414;49.570;6.060;2022-11-20T15:08:57;6.20;99.90
12700;DHT22;6414;49.570;6.060;2022-11-20T15:11:52;6.20;99.90
12700;DHT22;6414;49.570;6.060;2022-11-20T15:14:28;6.10;99.90
12700;DHT22;6414;49.570;6.060;2022-11-20T15:17:13;6.10;99.90
12700;DHT22;6414;49.570;6.060;2022-11-20T15:20:00;6.10;99.90
12700;DHT22;6414;49.570;6.060;2022-11-20T15:22:46;6.00;99.90
12700;DHT22;6414;49.570;6.060;2022-11-20T15:25:31;6.00;99.90
12700;DHT22;6414;49.570;6.060;2022-11-20T15:28:35;5.90;99.90
12700;DHT22;6414;49.570;6.060;2022-11-20T15:31:21;6.00;99.90
12700;DHT22;6414;49.570;6.060;2022-11-20T15:34:12;5.90;99.90
12700;DHT22;6414;49.570;6.060;2022-11-20T15:36:58;5.80;99.90
12700;DHT22;6414;49.570;6.060;2022-11-20T15:39:43;5.90;99.90
12700;DHT22;6414;49.570;6.060;2022-11-20T15:42:29;5.80;99.90
12700;DHT22;6414;49.570;6.060;2022-11-20T15:45:14;5.80;99.90
12700;DHT22;6414;49.570;6.060;2022-11-20T15:47:59;5.70;99.90
12700;DHT22;6414;49.570;6.060;2022-11-20T15:50:55;5.80;99.90
12700;DHT22;6414;49.570;6.060;2022-11-20T15:53:39;5.80;99.90
12700;DHT22;6414;49.570;6.060;2022-11-20T15:56:27;5.80;99.90
12700;DHT22;6414;49.570;6.060;2022-11-20T15:59:13;5.90;99.90
12700;DHT22;6414;49.570;6.060;2022-11-20T16:02:01;5.90;99.90
12700;DHT22;6414;49.570;6.060;2022-11-20T16:04:46;5.80;99.90
12700;DHT22;6414;49.570;6.060;2022-11-20T16:07:32;5.90;99.90
12700;DHT22;6414;49.570;6.060;2022-11-20T16:10:17;5.80;99.90
12700;DHT22;6414;49.570;6.060;2022-11-20T16:13:08;5.80;99.90
12700;DHT22;6414;49.570;6.060;2022-11-20T16:16:07;5.80;99.90
12700;DHT22;6414;49.570;6.060;2022-11-20T16:18:52;5.70;99.90
12700;DHT22;6414;49.570;6.060;2022-11-20T16:21:38;5.70;99.90
12700;DHT22;6414;49.570;6.060;2022-11-20T16:24:24;5.80;99.90
12700;DHT22;6414;49.570;6.060;2022-11-20T16:27:09;5.80;99.90
12700;DHT22;6414;49.570;6.060;2022-11-20T16:29:54;5.80;99.90
12700;DHT22;6414;49.570;6.060;2022-11-20T16:32:40;5.80;99.90
12700;DHT22;6414;49.570;6.060;2022-11-20T16:35:26;5.80;99.90
12700;DHT22;6414;49.570;6.060;2022-11-20T16:38:11;5.90;99.90
12700;DHT22;6414;49.570;6.060;2022-11-20T16:40:59;5.90;99.90
12700;DHT22;6414;49.570;6.060;2022-11-20T16:43:48;5.90;99.90
12700;DHT22;6414;49.570;6.060;2022-11-20T16:46:32;5.90;99.90
12700;DHT22;6414;49.570;6.060;2022-11-20T16:49:18;5.90;99.90
12700;DHT22;6414;49.570;6.060;2022-11-20T16:52:04;5.90;99.90
12700;DHT22;6414;49.570;6.060;2022-11-20T16:55:05;5.90;99.90
12700;DHT22;6414;49.570;6.060;2022-11-20T16:57:50;6.00;99.90
12700;DHT22;6414;49.570;6.060;2022-11-20T17:00:38;5.90;99.90
12700;DHT22;6414;49.570;6.060;2022-11-20T17:03:24;5.90;99.90
12700;DHT22;6414;49.570;6.060;2022-11-20T17:06:22;6.00;99.90
12700;DHT22;6414;49.570;6.060;2022-11-20T17:09:06;6.10;99.90
12700;DHT22;6414;49.570;6.060;2022-11-20T17:12:09;6.00;99.90
12700;DHT22;6414;49.570;6.060;2022-11-20T17:15:00;6.00;99.90
12700;DHT22;6414;49.570;6.060;2022-11-20T17:17:44;6.10;99.90
12700;DHT22;6414;49.570;6.060;2022-11-20T17:20:36;6.10;99.90
12700;DHT22;6414;49.570;6.060;2022-11-20T17:23:21;6.10;99.90
12700;DHT22;6414;49.570;6.060;2022-11-20T17:26:08;6.10;99.90
12700;DHT22;6414;49.570;6.060;2022-11-20T17:28:56;6.10;99.90
12700;DHT22;6414;49.570;6.060;2022-11-20T17:31:41;6.10;99.90
12700;DHT22;6414;49.570;6.060;2022-11-20T17:34:29;6.10;99.90
12700;DHT22;6414;49.570;6.060;2022-11-20T17:37:18;6.20;99.90
12700;DHT22;6414;49.570;6.060;2022-11-20T17:39:59;6.20;99.90
12700;DHT22;6414;49.570;6.060;2022-11-20T17:42:51;6.20;99.90
12700;DHT22;6414;49.570;6.060;2022-11-20T17:45:42;6.30;99.90
12700;DHT22;6414;49.570;6.060;2022-11-20T17:48:33;6.20;99.90
12700;DHT22;6414;49.570;6.060;2022-11-20T17:51:25;6.30;99.90
12700;DHT22;6414;49.570;6.060;2022-11-20T17:54:12;6.30;99.90
12700;DHT22;6414;49.570;6.060;2022-11-20T17:57:01;6.30;99.90
12700;DHT22;6414;49.570;6.060;2022-11-20T18:00:10;6.30;99.90
12700;DHT22;6414;49.570;6.060;2022-11-20T18:02:59;6.30;99.90
12700;DHT22;6414;49.570;6.060;2022-11-20T18:05:51;6.10;99.90
12700;DHT22;6414;49.570;6.060;2022-11-20T18:08:39;6.10;99.90
12700;DHT22;6414;49.570;6.060;2022-11-20T18:11:25;6.10;99.90
12700;DHT22;6414;49.570;6.060;2022-11-20T18:14:20;6.10;99.90
12700;DHT22;6414;49.570;6.060;2022-11-20T18:17:24;6.20;99.90
12700;DHT22;6414;49.570;6.060;2022-11-20T18:20:15;6.20;99.90
12700;DHT22;6414;49.570;6.060;2022-11-20T18:23:03;6.20;99.90
12700;DHT22;6414;49.570;6.060;2022-11-20T18:25:46;6.10;99.90
12700;DHT22;6414;49.570;6.060;2022-11-20T18:28:37;6.10;99.90
12700;DHT22;6414;49.570;6.060;2022-11-20T18:31:23;6.10;99.90
12700;DHT22;6414;49.570;6.060;2022-11-20T18:34:16;6.10;99.90
12700;DHT22;6414;49.570;6.060;2022-11-20T18:37:00;6.20;99.90
12700;DHT22;6414;49.570;6.060;2022-11-20T18:39:57;6.20;99.90
12700;DHT22;6414;49.570;6.060;2022-11-20T18:42:45;6.20;99.90
12700;DHT22;6414;49.570;6.060;2022-11-20T18:45:47;6.20;99.90
12700;DHT22;6414;49.570;6.060;2022-11-20T18:48:37;6.20;99.90
12700;DHT22;6414;49.570;6.060;2022-11-20T18:51:23;6.10;99.90
12700;DHT22;6414;49.570;6.060;2022-11-20T18:54:11;6.00;99.90
12700;DHT22;6414;49.570;6.060;2022-11-20T18:57:01;5.80;99.90
12700;DHT22;6414;49.570;6.060;2022-11-20T18:59:49;5.80;99.90
12700;DHT22;6414;49.570;6.060;2022-11-20T19:02:35;5.80;99.90
12700;DHT22;6414;49.570;6.060;2022-11-20T19:05:34;5.70;99.90
12700;DHT22;6414;49.570;6.060;2022-11-20T19:08:20;5.60;99.90
12700;DHT22;6414;49.570;6.060;2022-11-20T19:11:12;5.60;99.90
12700;DHT22;6414;49.570;6.060;2022-11-20T19:13:57;5.60;99.90
12700;DHT22;6414;49.570;6.060;2022-11-20T19:16:46;5.50;99.90
12700;DHT22;6414;49.570;6.060;2022-11-20T19:19:32;5.50;99.90
12700;DHT22;6414;49.570;6.060;2022-11-20T19:25:04;5.50;99.90
12700;DHT22;6414;49.570;6.060;2022-11-20T19:27:50;5.50;99.90